Time;durP1;ratioP1;P1;durP2;ratioP2;P2;SDS_P1;SDS_P2;PMS_P1;PMS_P2;Temp;Humidity;BMP_temperature;BMP_pressure;BME280_temperature;BME280_humidity;BME280_pressure;Samples;Min_cycle;Max_cycle;Signal;HPM_P1;HPM_P2
2021/08/08 00:01:35;;;;;;;5.38;3.10;;;16.70;1.00;;;;;;5073029;28;20131;-80
2021/08/08 00:04:01;;;;;;;7.10;3.25;;;16.60;1.00;;;;;;5070983;28;20115;-81
2021/08/08 00:06:26;;;;;;;5.63;3.50;;;16.70;1.00;;;;;;5069034;28;20404;-80
2021/08/08 00:08:52;;;;;;;7.03;3.25;;;16.70;1.00;;;;;;5070425;28;20029;-80
2021/08/08 00:11:18;;;;;;;6.65;3.67;;;16.60;1.00;;;;;;5071874;28;20032;-80
2021/08/08 00:13:43;;;;;;;6.95;3.20;;;16.60;1.00;;;;;;5073087;28;20024;-81
2021/08/08 00:16:09;;;;;;;4.90;3.05;;;16.60;1.00;;;;;;5070801;28;20036;-81
2021/08/08 00:18:35;;;;;;;6.68;3.42;;;16.60;1.00;;;;;;5071225;28;20048;-80
2021/08/08 00:21:00;;;;;;;3.50;2.97;;;16.40;1.00;;;;;;5069399;28;20032;-80
2021/08/08 00:23:26;;;;;;;4.28;2.90;;;16.40;1.00;;;;;;5071522;28;20377;-80
2021/08/08 00:25:51;;;;;;;4.85;3.35;;;16.30;1.00;;;;;;5068267;28;20028;-80
2021/08/08 00:28:17;;;;;;;6.40;3.10;;;16.20;1.00;;;;;;5069264;28;20469;-81
2021/08/08 00:30:43;;;;;;;9.07;3.45;;;16.20;1.00;;;;;;5069586;28;20032;-80
2021/08/08 00:33:09;;;;;;;5.13;3.40;;;16.00;1.00;;;;;;5052849;28;20047;-81
2021/08/08 00:35:35;;;;;;;4.47;2.90;;;16.00;1.00;;;;;;5070278;28;20016;-80
2021/08/08 00:38:00;;;;;;;7.55;2.83;;;15.90;1.00;;;;;;5071446;28;20559;-81
2021/08/08 00:40:27;;;;;;;5.28;3.30;;;15.90;1.00;;;;;;5072071;28;20553;-80
2021/08/08 00:42:53;;;;;;;4.47;2.75;;;16.00;1.00;;;;;;5069879;28;20496;-80
2021/08/08 00:45:20;;;;;;;5.30;2.65;;;16.00;1.00;;;;;;5070140;28;20082;-81
2021/08/08 00:47:46;;;;;;;6.10;2.80;;;16.00;1.00;;;;;;5070476;28;20399;-80
2021/08/08 00:50:14;;;;;;;4.13;2.60;;;15.90;1.00;;;;;;5070442;28;20025;-80
2021/08/08 00:52:39;;;;;;;3.83;2.65;;;15.90;1.00;;;;;;5071432;28;20033;-79
2021/08/08 00:55:06;;;;;;;4.85;2.75;;;16.00;1.00;;;;;;5070523;28;20032;-80
2021/08/08 00:57:32;;;;;;;5.57;2.60;;;16.10;1.00;;;;;;5070375;28;20043;-80
2021/08/08 00:59:58;;;;;;;7.70;3.13;;;16.00;1.00;;;;;;5069043;28;20492;-80
2021/08/08 01:02:23;;;;;;;10.82;2.60;;;15.90;1.00;;;;;;5053315;28;20111;-81
2021/08/08 01:04:59;;;;;;;4.82;2.35;;;15.80;1.00;;;;;;5071931;28;20119;-80
2021/08/08 01:07:33;;;;;;;4.90;2.53;;;15.80;1.00;;;;;;5069272;28;20027;-81
2021/08/08 01:10:01;;;;;;;8.95;2.30;;;15.80;1.00;;;;;;5068509;28;20024;-80
2021/08/08 01:12:27;;;;;;;5.00;2.30;;;15.70;1.00;;;;;;5069938;28;20020;-80
2021/08/08 01:14:56;;;;;;;3.28;2.22;;;15.80;1.00;;;;;;5068972;28;20028;-81
2021/08/08 01:17:23;;;;;;;7.25;2.75;;;15.80;1.00;;;;;;5070488;28;20392;-80
2021/08/08 01:19:59;;;;;;;4.97;2.72;;;15.80;1.00;;;;;;5071570;28;20040;-80
2021/08/08 01:22:29;;;;;;;4.50;2.60;;;15.70;1.00;;;;;;5068933;28;20033;-81
2021/08/08 01:24:56;;;;;;;5.63;2.60;;;15.60;1.00;;;;;;5069572;28;20125;-80
2021/08/08 01:27:22;;;;;;;4.85;2.67;;;15.70;1.00;;;;;;5069364;28;20024;-81
2021/08/08 01:29:48;;;;;;;7.18;2.78;;;15.60;1.00;;;;;;5070210;28;20093;-81
2021/08/08 01:32:14;;;;;;;3.50;2.42;;;15.40;1.00;;;;;;5069853;28;20024;-80
2021/08/08 01:34:39;;;;;;;3.33;2.72;;;15.40;1.00;;;;;;5071859;28;20028;-80
2021/08/08 01:37:05;;;;;;;7.95;2.22;;;15.50;1.00;;;;;;5069691;28;20424;-80
2021/08/08 01:39:34;;;;;;;4.90;2.47;;;15.50;1.00;;;;;;5068652;28;20499;-80
2021/08/08 01:42:05;;;;;;;2.65;2.40;;;15.50;1.00;;;;;;5051763;28;20123;-80
2021/08/08 01:44:39;;;;;;;4.05;2.50;;;15.50;1.00;;;;;;5068940;28;20058;-80
2021/08/08 01:47:06;;;;;;;6.18;2.40;;;15.50;1.00;;;;;;5069440;28;20053;-80
2021/08/08 01:49:33;;;;;;;4.75;2.20;;;15.50;1.00;;;;;;5069006;28;20115;-80
2021/08/08 01:51:59;;;;;;;5.45;2.58;;;15.50;1.00;;;;;;5069562;28;20557;-80
2021/08/08 01:54:25;;;;;;;3.13;2.50;;;15.50;1.00;;;;;;5069110;28;20025;-81
2021/08/08 01:56:54;;;;;;;4.68;2.20;;;15.60;1.00;;;;;;5069529;28;20025;-80
2021/08/08 01:59:20;;;;;;;4.05;2.20;;;15.60;1.00;;;;;;5069718;28;20031;-80
2021/08/08 02:01:46;;;;;;;5.75;2.45;;;15.70;1.00;;;;;;5071126;28;20024;-81
2021/08/08 02:04:20;;;;;;;6.60;2.08;;;15.70;1.00;;;;;;5069354;28;20037;-80
2021/08/08 02:06:46;;;;;;;5.22;2.10;;;15.80;1.00;;;;;;5069636;28;20036;-80
2021/08/08 02:09:12;;;;;;;4.65;2.03;;;15.90;1.00;;;;;;5068518;28;20492;-79
2021/08/08 02:11:38;;;;;;;4.47;2.05;;;16.00;1.00;;;;;;5069676;28;20028;-81
2021/08/08 02:14:04;;;;;;;3.00;1.73;;;15.90;1.00;;;;;;5070515;28;20564;-80
2021/08/08 02:16:31;;;;;;;4.35;2.25;;;15.90;1.00;;;;;;5070060;28;20040;-80
2021/08/08 02:18:57;;;;;;;3.53;2.25;;;15.90;1.00;;;;;;5069850;28;20020;-81
2021/08/08 02:21:23;;;;;;;7.93;2.08;;;15.80;1.00;;;;;;5069304;28;20047;-80
2021/08/08 02:23:48;;;;;;;4.03;2.03;;;15.80;1.00;;;;;;5067003;28;20492;-80
2021/08/08 02:26:14;;;;;;;4.82;2.00;;;15.90;1.00;;;;;;5069202;28;20045;-80
2021/08/08 02:28:40;;;;;;;6.50;2.40;;;16.00;1.00;;;;;;5071232;28;20052;-80
2021/08/08 02:31:05;;;;;;;4.93;1.90;;;16.00;1.00;;;;;;5069242;28;20067;-80
2021/08/08 02:33:31;;;;;;;6.60;2.40;;;16.00;1.00;;;;;;5069340;28;20709;-80
2021/08/08 02:35:56;;;;;;;2.70;2.00;;;16.10;1.00;;;;;;5069272;28;20032;-81
2021/08/08 02:38:24;;;;;;;2.75;1.80;;;16.10;1.00;;;;;;5068269;28;20040;-81
2021/08/08 02:40:50;;;;;;;2.40;2.03;;;16.00;1.00;;;;;;5070792;28;20113;-80
2021/08/08 02:43:15;;;;;;;4.82;2.00;;;15.90;1.00;;;;;;5068958;28;20467;-80
2021/08/08 02:45:41;;;;;;;5.07;2.17;;;15.90;1.00;;;;;;5069235;28;20024;-81
2021/08/08 02:48:07;;;;;;;2.33;2.00;;;15.90;1.00;;;;;;5069366;28;20037;-80
2021/08/08 02:50:32;;;;;;;3.78;1.90;;;15.90;1.00;;;;;;5069281;28;20561;-80
2021/08/08 02:52:58;;;;;;;3.00;1.75;;;15.80;1.00;;;;;;5069682;28;20499;-81
2021/08/08 02:55:24;;;;;;;3.10;1.98;;;15.80;1.00;;;;;;5069391;28;20495;-80
2021/08/08 02:57:49;;;;;;;5.80;1.85;;;15.80;1.00;;;;;;5069255;28;20020;-80
2021/08/08 03:00:15;;;;;;;6.35;2.17;;;15.80;1.00;;;;;;5072282;28;20017;-80
2021/08/08 03:02:41;;;;;;;3.50;1.85;;;15.70;1.00;;;;;;5071545;28;20033;-80
2021/08/08 03:05:07;;;;;;;4.95;1.98;;;15.80;1.00;;;;;;5073231;28;20442;-80
2021/08/08 03:07:32;;;;;;;2.15;1.70;;;15.80;1.00;;;;;;5073062;28;20028;-80
2021/08/08 03:09:58;;;;;;;3.30;1.58;;;15.80;1.00;;;;;;5072071;28;20039;-80
2021/08/08 03:12:24;;;;;;;8.20;1.85;;;15.80;1.00;;;;;;5072251;28;20017;-81
2021/08/08 03:14:49;;;;;;;2.25;2.05;;;15.80;1.00;;;;;;5072374;28;20028;-80
2021/08/08 03:17:15;;;;;;;2.53;1.45;;;15.80;1.00;;;;;;5072484;28;20021;-81
2021/08/08 03:19:40;;;;;;;3.35;1.98;;;15.80;1.00;;;;;;5074304;28;20488;-80
2021/08/08 03:22:06;;;;;;;3.67;1.83;;;15.80;1.00;;;;;;5055230;28;20107;-80
2021/08/08 03:24:32;;;;;;;7.45;2.42;;;15.80;1.00;;;;;;5071698;28;20436;-80
2021/08/08 03:26:58;;;;;;;2.58;1.73;;;15.80;1.00;;;;;;5072361;28;20408;-80
2021/08/08 03:29:24;;;;;;;4.15;1.90;;;15.90;1.00;;;;;;5072646;28;20029;-80
2021/08/08 03:31:49;;;;;;;3.60;2.00;;;15.80;1.00;;;;;;5073858;28;20029;-80
2021/08/08 03:34:15;;;;;;;8.20;1.98;;;15.80;1.00;;;;;;5071985;28;20092;-80
2021/08/08 03:36:40;;;;;;;4.30;1.90;;;15.80;1.00;;;;;;5071373;28;20028;-80
2021/08/08 03:39:06;;;;;;;1.98;1.75;;;15.70;1.00;;;;;;5071808;28;20139;-81
2021/08/08 03:41:31;;;;;;;5.78;1.95;;;15.70;1.00;;;;;;5070373;28;20568;-80
2021/08/08 03:43:57;;;;;;;4.88;2.13;;;15.80;1.00;;;;;;5073363;28;20032;-80
2021/08/08 03:46:23;;;;;;;2.97;1.80;;;15.80;1.00;;;;;;5071765;28;20389;-80
2021/08/08 03:48:49;;;;;;;4.95;2.00;;;15.70;1.00;;;;;;5071198;28;20443;-81
2021/08/08 03:51:15;;;;;;;1.90;1.80;;;15.60;1.00;;;;;;5071902;28;20033;-80
2021/08/08 03:53:40;;;;;;;7.00;2.05;;;15.60;1.00;;;;;;5071698;28;20445;-80
2021/08/08 03:56:06;;;;;;;5.50;1.80;;;15.60;1.00;;;;;;5072410;28;20456;-80
2021/08/08 03:58:31;;;;;;;6.13;1.90;;;15.60;1.00;;;;;;5072396;28;20024;-81
2021/08/08 04:01:01;;;;;;;2.55;1.75;;;15.60;1.00;;;;;;5071969;28;20024;-81
2021/08/08 04:03:29;;;;;;;6.55;2.17;;;15.60;1.00;;;;;;5071573;28;20111;-80
2021/08/08 04:05:54;;;;;;;2.47;1.67;;;15.70;1.00;;;;;;5069379;28;20111;-80
2021/08/08 04:08:20;;;;;;;4.22;1.80;;;15.70;1.00;;;;;;5071027;28;20112;-80
2021/08/08 04:10:46;;;;;;;6.13;1.80;;;15.70;1.00;;;;;;5072895;28;20516;-80
2021/08/08 04:13:11;;;;;;;6.72;1.92;;;15.60;1.00;;;;;;5070494;28;20021;-81
2021/08/08 04:15:37;;;;;;;3.17;1.80;;;15.40;1.00;;;;;;5071330;28;20423;-80
2021/08/08 04:18:03;;;;;;;7.30;2.00;;;15.40;1.00;;;;;;5070950;28;20036;-80
2021/08/08 04:20:28;;;;;;;3.75;2.22;;;15.50;1.00;;;;;;5071692;28;20024;-80
2021/08/08 04:22:54;;;;;;;4.55;2.13;;;15.50;1.00;;;;;;5072966;28;20499;-80
2021/08/08 04:25:19;;;;;;;6.05;2.22;;;15.50;1.00;;;;;;5070598;28;20064;-81
2021/08/08 04:27:45;;;;;;;4.65;2.03;;;15.50;1.00;;;;;;5071059;28;20538;-80
2021/08/08 04:30:11;;;;;;;8.95;2.30;;;15.50;1.00;;;;;;5070894;28;20029;-80
2021/08/08 04:32:37;;;;;;;5.38;1.90;;;15.50;1.00;;;;;;5068871;28;20397;-80
2021/08/08 04:35:03;;;;;;;2.63;1.80;;;15.50;1.00;;;;;;5071310;28;20025;-80
2021/08/08 04:37:28;;;;;;;3.58;2.05;;;15.50;1.00;;;;;;5070910;28;20500;-80
2021/08/08 04:39:54;;;;;;;4.10;1.95;;;15.50;1.00;;;;;;5070676;28;20016;-80
2021/08/08 04:42:19;;;;;;;6.30;2.42;;;15.50;1.00;;;;;;5070728;28;20033;-80
2021/08/08 04:44:45;;;;;;;4.35;1.90;;;15.50;1.00;;;;;;5070709;28;20060;-80
2021/08/08 04:47:10;;;;;;;2.78;2.03;;;15.50;1.00;;;;;;5070832;28;20047;-80
2021/08/08 04:49:36;;;;;;;8.27;2.00;;;15.50;1.00;;;;;;5071251;28;20033;-80
2021/08/08 04:52:02;;;;;;;5.05;2.00;;;15.40;1.00;;;;;;5070283;28;20124;-80
2021/08/08 04:54:28;;;;;;;3.53;2.00;;;15.40;1.00;;;;;;5070338;28;20025;-80
2021/08/08 04:56:54;;;;;;;5.55;1.80;;;15.30;1.00;;;;;;5069614;28;20488;-81
2021/08/08 04:59:20;;;;;;;3.47;1.80;;;15.30;1.00;;;;;;5070423;28;20074;-80
2021/08/08 05:01:46;;;;;;;3.92;1.70;;;15.30;1.00;;;;;;5071469;28;20111;-80
2021/08/08 05:04:11;;;;;;;6.50;2.85;;;15.30;1.00;;;;;;5070275;28;20469;-79
2021/08/08 05:06:37;;;;;;;3.45;2.00;;;15.30;1.00;;;;;;5069741;28;20048;-80
2021/08/08 05:09:04;;;;;;;6.82;2.22;;;15.30;1.00;;;;;;5070147;28;20094;-80
2021/08/08 05:11:30;;;;;;;3.97;2.35;;;15.30;1.00;;;;;;5052180;28;20020;-80
2021/08/08 05:13:56;;;;;;;2.72;2.03;;;15.20;1.00;;;;;;5071756;28;20086;-80
2021/08/08 05:16:21;;;;;;;5.22;1.98;;;15.30;1.00;;;;;;5070217;28;20024;-81
2021/08/08 05:18:47;;;;;;;5.72;2.20;;;15.30;1.00;;;;;;5070361;28;20024;-80
2021/08/08 05:21:13;;;;;;;5.20;2.25;;;15.30;1.00;;;;;;5069616;28;20028;-80
2021/08/08 05:23:38;;;;;;;3.47;2.03;;;15.30;1.00;;;;;;5070015;28;20062;-80
2021/08/08 05:26:04;;;;;;;2.67;1.95;;;15.40;1.00;;;;;;5071147;28;20048;-79
2021/08/08 05:28:30;;;;;;;2.22;1.92;;;15.40;1.00;;;;;;5069698;28;20028;-80
2021/08/08 05:30:56;;;;;;;4.28;2.22;;;15.40;1.00;;;;;;5070109;28;20388;-80
2021/08/08 05:33:21;;;;;;;3.40;1.83;;;15.40;1.00;;;;;;5069648;28;20021;-80
2021/08/08 05:35:48;;;;;;;2.90;2.15;;;15.40;1.00;;;;;;5069557;28;20020;-79
2021/08/08 05:38:14;;;;;;;2.75;1.90;;;15.50;1.00;;;;;;5071083;28;20048;-80
2021/08/08 05:40:39;;;;;;;8.10;2.22;;;15.50;1.00;;;;;;5069296;28;20086;-81
2021/08/08 05:43:05;;;;;;;4.45;2.15;;;15.60;1.00;;;;;;5069813;28;20027;-80
2021/08/08 05:45:31;;;;;;;4.47;2.25;;;15.90;1.00;;;;;;5069802;28;20036;-80
2021/08/08 05:47:57;;;;;;;4.50;1.98;;;15.90;1.00;;;;;;5069987;28;20586;-81
2021/08/08 05:50:23;;;;;;;2.80;2.10;;;15.80;1.00;;;;;;5068455;28;20400;-80
2021/08/08 05:52:50;;;;;;;7.70;2.15;;;15.90;1.00;;;;;;5071849;28;20099;-80
2021/08/08 05:55:17;;;;;;;4.53;2.13;;;15.80;1.00;;;;;;5069705;28;20431;-81
2021/08/08 05:57:43;;;;;;;4.65;2.22;;;15.90;1.00;;;;;;5068877;28;20040;-80
2021/08/08 06:00:09;;;;;;;4.90;2.28;;;15.90;1.00;;;;;;5068968;28;20032;-80
2021/08/08 06:02:34;;;;;;;3.92;1.90;;;15.90;1.00;;;;;;5069865;28;20024;-80
2021/08/08 06:05:00;;;;;;;2.95;2.10;;;15.80;1.00;;;;;;5070459;28;20044;-80
2021/08/08 06:07:25;;;;;;;7.05;2.08;;;15.80;1.00;;;;;;5069470;28;20592;-82
2021/08/08 06:09:51;;;;;;;4.40;2.20;;;15.80;1.00;;;;;;5068484;28;20024;-80
2021/08/08 06:12:17;;;;;;;10.63;2.30;;;15.90;1.00;;;;;;5068280;28;20409;-82
2021/08/08 06:14:43;;;;;;;6.20;2.05;;;16.00;1.00;;;;;;5068627;28;20078;-83
2021/08/08 06:17:08;;;;;;;6.00;2.30;;;16.00;1.00;;;;;;5070457;28;20020;-85
2021/08/08 06:19:34;;;;;;;3.55;1.92;;;16.00;1.00;;;;;;5068944;28;20021;-86
2021/08/08 06:22:00;;;;;;;3.08;1.90;;;15.90;1.00;;;;;;5068939;28;20078;-85
2021/08/08 06:24:25;;;;;;;4.20;2.17;;;15.90;1.00;;;;;;5068994;28;20081;-83
2021/08/08 06:26:51;;;;;;;3.00;2.10;;;16.00;1.00;;;;;;5068535;28;20515;-84
2021/08/08 06:29:17;;;;;;;5.18;2.10;;;16.20;1.00;;;;;;5069022;28;20029;-82
2021/08/08 06:31:42;;;;;;;3.05;2.25;;;16.30;1.00;;;;;;5070262;28;20028;-83
2021/08/08 06:34:08;;;;;;;4.25;2.30;;;16.40;1.00;;;;;;5071080;28;20020;-81
2021/08/08 06:36:34;;;;;;;7.47;2.60;;;16.50;1.00;;;;;;5072853;28;20039;-82
2021/08/08 06:39:04;;;;;;;7.60;2.38;;;16.50;1.00;;;;;;5071740;28;20116;-82
2021/08/08 06:41:31;;;;;;;4.00;2.38;;;16.60;1.00;;;;;;5073541;28;20127;-81
2021/08/08 06:43:57;;;;;;;3.05;2.13;;;16.50;1.00;;;;;;5074359;28;20032;-82
2021/08/08 06:46:22;;;;;;;6.15;2.05;;;16.50;1.00;;;;;;5072183;28;20047;-80
2021/08/08 06:48:48;;;;;;;3.63;2.10;;;16.60;1.00;;;;;;5073113;28;20036;-83
2021/08/08 06:51:13;;;;;;;5.20;2.08;;;16.60;1.00;;;;;;5071462;28;20025;-82
2021/08/08 06:53:39;;;;;;;2.78;2.00;;;16.70;1.00;;;;;;5072660;28;20078;-82
2021/08/08 06:56:05;;;;;;;6.45;2.70;;;16.80;1.00;;;;;;5073044;28;20036;-83
2021/08/08 06:58:30;;;;;;;5.05;2.47;;;16.90;1.00;;;;;;5074596;28;20512;-82
2021/08/08 07:00:56;;;;;;;8.05;2.63;;;17.00;1.00;;;;;;5070836;28;20016;-82
2021/08/08 07:03:22;;;;;;;5.25;2.38;;;17.10;1.00;;;;;;5071576;28;20040;-80
2021/08/08 07:05:47;;;;;;;4.32;2.35;;;17.20;1.00;;;;;;5073230;28;20124;-81
2021/08/08 07:08:13;;;;;;;4.50;1.95;;;17.30;1.00;;;;;;5072277;28;20025;-82
2021/08/08 07:10:39;;;;;;;3.85;2.55;;;17.30;1.00;;;;;;5074303;28;20484;-80
2021/08/08 07:13:04;;;;;;;4.55;2.17;;;17.40;1.00;;;;;;5072506;28;20028;-82
2021/08/08 07:15:30;;;;;;;4.75;2.05;;;17.60;1.00;;;;;;5072076;28;20050;-82
2021/08/08 07:17:56;;;;;;;5.50;2.22;;;17.60;1.00;;;;;;5072253;28;20830;-82
2021/08/08 07:20:21;;;;;;;6.07;2.33;;;17.70;1.00;;;;;;5072544;28;20070;-82
2021/08/08 07:22:47;;;;;;;4.55;2.25;;;17.90;1.00;;;;;;5074099;28;20465;-82
2021/08/08 07:25:13;;;;;;;7.53;2.05;;;17.90;1.00;;;;;;5072030;28;20504;-82
2021/08/08 07:27:38;;;;;;;3.63;2.28;;;18.10;1.00;;;;;;5070451;28;20024;-83
2021/08/08 07:30:05;;;;;;;4.47;2.15;;;18.20;1.00;;;;;;5071733;28;20021;-82
2021/08/08 07:32:30;;;;;;;8.40;2.40;;;18.20;1.00;;;;;;5072162;28;20412;-82
2021/08/08 07:34:56;;;;;;;4.75;2.30;;;18.10;1.00;;;;;;5074231;28;20036;-82
2021/08/08 07:37:21;;;;;;;7.70;2.70;;;18.20;1.00;;;;;;5070396;28;20036;-82
2021/08/08 07:39:48;;;;;;;5.10;2.58;;;18.30;1.00;;;;;;5070049;28;20466;-82
2021/08/08 07:42:14;;;;;;;3.47;2.10;;;18.30;1.00;;;;;;5071013;28;20480;-82
2021/08/08 07:44:39;;;;;;;3.85;2.00;;;18.30;1.00;;;;;;5071421;28;20091;-82
2021/08/08 07:47:05;;;;;;;5.05;2.10;;;18.30;1.00;;;;;;5072503;28;20087;-83
2021/08/08 07:49:31;;;;;;;5.68;2.10;;;18.30;1.00;;;;;;5072398;28;20035;-82
2021/08/08 07:51:56;;;;;;;4.60;1.63;;;18.40;1.00;;;;;;5071476;28;20393;-82
2021/08/08 07:54:22;;;;;;;5.70;2.00;;;18.50;1.00;;;;;;5071889;28;20044;-82
2021/08/08 07:56:48;;;;;;;3.35;1.58;;;18.70;1.00;;;;;;5070395;28;20031;-82
2021/08/08 07:59:14;;;;;;;6.53;2.10;;;18.70;1.00;;;;;;5053655;28;20031;-82
2021/08/08 08:01:41;;;;;;;3.65;1.85;;;18.80;1.00;;;;;;5073340;28;20028;-82
2021/08/08 08:04:07;;;;;;;5.20;2.10;;;18.90;1.00;;;;;;5071424;28;20529;-82
2021/08/08 08:06:33;;;;;;;6.13;2.05;;;19.00;1.00;;;;;;5071023;28;20033;-83
2021/08/08 08:08:59;;;;;;;5.07;2.13;;;19.00;1.00;;;;;;5071313;28;20044;-82
2021/08/08 08:11:24;;;;;;;5.78;1.90;;;19.00;1.00;;;;;;5070431;28;20087;-82
2021/08/08 08:13:50;;;;;;;5.05;2.05;;;19.10;1.00;;;;;;5072623;28;20373;-82
2021/08/08 08:16:16;;;;;;;5.10;1.83;;;18.90;1.00;;;;;;5069602;28;20512;-82
2021/08/08 08:18:41;;;;;;;2.40;2.00;;;19.00;1.00;;;;;;5069575;28;20024;-82
2021/08/08 08:21:07;;;;;;;4.07;1.95;;;19.00;1.00;;;;;;5070804;28;20052;-82
2021/08/08 08:23:33;;;;;;;5.15;1.98;;;19.00;1.00;;;;;;5071280;28;20048;-82
2021/08/08 08:25:58;;;;;;;6.35;1.80;;;19.00;1.00;;;;;;5071586;28;20515;-82
2021/08/08 08:28:29;;;;;;;7.20;1.75;;;19.20;1.00;;;;;;5069660;28;20044;-82
2021/08/08 08:30:58;;;;;;;4.22;1.73;;;19.40;1.00;;;;;;5070363;28;20048;-82
2021/08/08 08:33:23;;;;;;;3.67;1.50;;;19.40;1.00;;;;;;5070616;28;20496;-82
2021/08/08 08:35:49;;;;;;;4.57;1.60;;;19.60;1.00;;;;;;5071069;28;20052;-82
2021/08/08 08:38:16;;;;;;;3.13;1.58;;;19.60;1.00;;;;;;5070963;28;20400;-82
2021/08/08 08:40:43;;;;;;;3.15;1.40;;;19.70;1.00;;;;;;5071778;28;20036;-82
2021/08/08 08:43:09;;;;;;;6.78;1.50;;;19.80;1.00;;;;;;5069819;28;20029;-82
2021/08/08 08:45:39;;;;;;;3.20;1.77;;;20.10;1.00;;;;;;5070564;28;20082;-82
2021/08/08 08:48:06;;;;;;;1.92;1.20;;;20.20;1.00;;;;;;5070529;28;20051;-82
2021/08/08 08:50:34;;;;;;;4.15;1.35;;;20.10;1.00;;;;;;5070306;28;20024;-82
2021/08/08 08:53:01;;;;;;;2.60;1.08;;;20.20;1.00;;;;;;5071806;28;20521;-81
2021/08/08 08:55:26;;;;;;;3.63;1.17;;;20.40;1.00;;;;;;5069588;28;20025;-80
2021/08/08 08:57:52;;;;;;;2.90;1.25;;;20.70;1.00;;;;;;5051248;28;20032;-82
2021/08/08 09:00:18;;;;;;;1.50;0.98;;;20.80;1.00;;;;;;5070585;28;20032;-82
2021/08/08 09:02:44;;;;;;;1.85;0.90;;;21.10;99.90;;;;;;5070174;28;20111;-82
2021/08/08 09:05:10;;;;;;;3.88;1.10;;;20.90;99.90;;;;;;5070494;28;20033;-82
2021/08/08 09:07:35;;;;;;;2.00;1.10;;;21.00;99.90;;;;;;5071483;28;20492;-82
2021/08/08 09:10:01;;;;;;;2.92;1.23;;;21.00;99.90;;;;;;5069151;28;20055;-81
2021/08/08 09:12:29;;;;;;;2.63;1.02;;;21.00;99.90;;;;;;5068480;28;20024;-82
2021/08/08 09:15:03;;;;;;;4.28;0.95;;;21.20;99.90;;;;;;5070128;28;20097;-82
2021/08/08 09:17:29;;;;;;;2.60;1.10;;;21.20;99.90;;;;;;5054423;28;20482;-81
2021/08/08 09:20:19;;;;;;;4.20;1.10;;;21.40;99.90;;;;;;5067515;28;20036;-82
2021/08/08 09:22:56;;;;;;;2.10;1.10;;;21.70;99.90;;;;;;5070817;28;20118;-82
2021/08/08 09:25:22;;;;;;;2.53;1.00;;;21.90;99.90;;;;;;5069577;28;20044;-82
2021/08/08 09:27:48;;;;;;;2.22;1.13;;;22.40;99.90;;;;;;5068169;28;20028;-82
2021/08/08 09:30:20;;;;;;;2.92;1.05;;;22.80;99.90;;;;;;5070022;28;20400;-82
2021/08/08 09:32:46;;;;;;;4.60;0.90;;;22.90;99.90;;;;;;5068551;28;20024;-82
2021/08/08 09:35:21;;;;;;;3.33;1.20;;;22.80;99.90;;;;;;5070844;28;20032;-82
2021/08/08 09:38:00;;;;;;;1.77;0.80;;;22.70;99.90;;;;;;5070786;28;20016;-82
2021/08/08 09:40:26;;;;;;;2.15;1.02;;;22.90;99.90;;;;;;5067969;28;20024;-82
2021/08/08 09:42:53;;;;;;;4.47;1.02;;;23.10;99.90;;;;;;5068964;28;20016;-82
2021/08/08 09:45:18;;;;;;;2.85;1.20;;;22.90;99.90;;;;;;5068593;28;20054;-82
2021/08/08 09:47:53;;;;;;;3.35;1.00;;;23.30;99.90;;;;;;5069931;28;20124;-82
2021/08/08 09:50:21;;;;;;;2.92;1.00;;;23.50;99.90;;;;;;5051678;28;20059;-82
2021/08/08 09:52:51;;;;;;;2.80;1.13;;;23.70;99.90;;;;;;5071355;28;20017;-82
2021/08/08 09:55:19;;;;;;;3.28;1.20;;;23.70;99.90;;;;;;5069273;28;20085;-81
2021/08/08 09:57:45;;;;;;;5.20;1.10;;;24.10;99.90;;;;;;5071839;28;20485;-82
2021/08/08 10:00:22;;;;;;;1.63;0.90;;;24.20;99.90;;;;;;5069965;28;20040;-83
2021/08/08 10:02:47;;;;;;;2.13;1.02;;;24.10;99.90;;;;;;5070188;28;20050;-83
2021/08/08 10:05:13;;;;;;;2.08;1.10;;;23.80;99.90;;;;;;5069190;28;20076;-83
2021/08/08 10:07:39;;;;;;;3.33;1.20;;;23.70;99.90;;;;;;5071467;28;20033;-85
2021/08/08 10:10:06;;;;;;;2.28;1.08;;;23.40;99.90;;;;;;5072720;28;20020;-85
2021/08/08 10:13:00;;;;;;;1.80;0.90;;;23.60;99.90;;;;;;5073928;28;20033;-85
2021/08/08 10:15:26;;;;;;;6.38;1.40;;;23.20;99.90;;;;;;5073475;28;20055;-85
2021/08/08 10:17:53;;;;;;;3.00;1.33;;;22.90;99.90;;;;;;5074094;28;20062;-85
2021/08/08 10:20:20;;;;;;;3.45;1.30;;;22.80;99.90;;;;;;5073536;28;20041;-84
2021/08/08 10:22:48;;;;;;;3.08;1.00;;;22.90;99.90;;;;;;5056552;28;20070;-88
2021/08/08 10:25:15;;;;;;;4.20;1.10;;;23.20;99.90;;;;;;5072841;28;20492;-82
2021/08/08 10:27:41;;;;;;;3.35;1.00;;;23.30;99.90;;;;;;5072120;28;20028;-82
2021/08/08 10:30:07;;;;;;;3.10;0.90;;;23.70;99.90;;;;;;5073369;28;20031;-82
2021/08/08 10:32:33;;;;;;;1.38;0.98;;;23.80;99.90;;;;;;5072940;28;20053;-82
2021/08/08 10:35:12;;;;;;;3.30;1.00;;;23.90;99.90;;;;;;5075182;28;20114;-82
2021/08/08 10:37:39;;;;;;;3.53;1.70;;;24.00;99.90;;;;;;5068786;28;20025;-82
2021/08/08 10:40:06;;;;;;;5.22;1.55;;;23.90;99.90;;;;;;5072566;28;20084;-82
2021/08/08 10:42:46;;;;;;;4.47;1.38;;;23.60;99.90;;;;;;5072164;28;20045;-82
2021/08/08 10:45:27;;;;;;;2.00;1.10;;;23.50;99.90;;;;;;5072791;28;20082;-82
2021/08/08 10:48:07;;;;;;;3.05;1.17;;;23.60;99.90;;;;;;5072701;28;20083;-82
2021/08/08 10:50:40;;;;;;;1.90;1.08;;;23.70;99.90;;;;;;5055960;28;20412;-82
2021/08/08 10:53:06;;;;;;;2.10;1.05;;;23.90;99.90;;;;;;5073869;28;20025;-82
2021/08/08 10:55:35;;;;;;;1.90;1.08;;;24.50;99.90;;;;;;5072139;28;20111;-82
2021/08/08 10:58:11;;;;;;;1.77;1.02;;;25.20;99.90;;;;;;5069921;28;20036;-82
2021/08/08 11:00:37;;;;;;;2.13;0.88;;;25.30;99.90;;;;;;5072414;28;20028;-82
2021/08/08 11:03:17;;;;;;;2.25;1.10;;;25.60;99.90;;;;;;5072384;28;20412;-82
2021/08/08 11:05:44;;;;;;;2.78;1.10;;;26.00;99.90;;;;;;5072653;28;20035;-81
2021/08/08 11:08:11;;;;;;;2.42;1.10;;;28.90;99.90;;;;;;5072894;28;20321;-81
2021/08/08 11:10:40;;;;;;;2.30;1.00;;;32.10;99.90;;;;;;5074203;28;20032;-82
2021/08/08 11:13:23;;;;;;;3.17;1.00;;;33.70;99.90;;;;;;5072273;28;20033;-82
2021/08/08 11:15:50;;;;;;;2.10;0.90;;;33.70;99.90;;;;;;5072116;28;20020;-81
2021/08/08 11:18:17;;;;;;;1.88;1.10;;;35.80;99.90;;;;;;5072193;28;20031;-82
2021/08/08 11:20:43;;;;;;;4.45;1.20;;;37.00;99.90;;;;;;5071595;28;20028;-82
2021/08/08 11:23:09;;;;;;;3.05;0.90;;;38.10;99.90;;;;;;5072738;28;20104;-82
2021/08/08 11:25:43;;;;;;;2.40;1.00;;;38.20;99.90;;;;;;5073551;28;20111;-82
2021/08/08 11:28:10;;;;;;;2.08;0.90;;;34.00;99.90;;;;;;5053199;28;20400;-82
2021/08/08 11:30:44;;;;;;;1.63;1.27;;;34.80;99.90;;;;;;5070560;28;20041;-82
2021/08/08 11:33:11;;;;;;;3.00;1.23;;;35.00;99.90;;;;;;5070712;28;20024;-82
2021/08/08 11:35:38;;;;;;;2.88;1.20;;;36.30;99.90;;;;;;5072176;28;20428;-82
2021/08/08 11:38:19;;;;;;;2.35;1.10;;;36.50;99.90;;;;;;5073331;28;20035;-82
2021/08/08 11:40:46;;;;;;;1.45;1.05;;;37.00;99.90;;;;;;5073891;28;20430;-82
2021/08/08 11:43:13;;;;;;;1.38;0.90;;;38.50;99.90;;;;;;5070744;28;20070;-83
2021/08/08 11:45:48;;;;;;;1.15;0.98;;;37.70;99.90;;;;;;5071850;28;20584;-83
2021/08/08 11:48:18;;;;;;;1.60;1.05;;;39.50;99.90;;;;;;5071876;28;20044;-83
2021/08/08 11:50:54;;;;;;;2.92;1.02;;;41.00;99.90;;;;;;5071484;28;20025;-82
2021/08/08 11:53:33;;;;;;;1.70;1.08;;;42.30;99.90;;;;;;5071680;28;20047;-83
2021/08/08 11:56:14;;;;;;;1.33;0.88;;;40.60;99.90;;;;;;5068527;28;20098;-83
2021/08/08 11:58:54;;;;;;;1.52;1.13;;;40.60;99.90;;;;;;5053568;28;20463;-83
2021/08/08 12:01:23;;;;;;;1.25;1.00;;;41.70;99.90;;;;;;5071467;28;20060;-83
2021/08/08 12:03:50;;;;;;;2.75;1.33;;;39.00;99.90;;;;;;5071618;28;20046;-83
2021/08/08 12:06:21;;;;;;;1.92;1.02;;;37.60;99.90;;;;;;5071227;28;20017;-83
2021/08/08 12:08:52;;;;;;;3.80;1.38;;;33.00;99.90;;;;;;5070079;28;20013;-83
2021/08/08 12:11:20;;;;;;;2.60;1.10;;;31.70;99.90;;;;;;5070499;28;20048;-83
2021/08/08 12:13:58;;;;;;;3.72;1.10;;;36.10;99.90;;;;;;5070890;28;20499;-83
2021/08/08 12:16:32;;;;;;;2.63;1.20;;;32.30;99.90;;;;;;5069429;28;20046;-82
2021/08/08 12:18:58;;;;;;;1.75;1.20;;;29.50;99.90;;;;;;5071855;28;20024;-83
2021/08/08 12:21:24;;;;;;;2.83;1.20;;;29.20;99.90;;;;;;5070024;28;20025;-83
2021/08/08 12:23:49;;;;;;;1.63;0.93;;;28.40;99.90;;;;;;5071007;28;20020;-82
2021/08/08 12:26:25;;;;;;;1.85;1.10;;;31.60;99.90;;;;;;5069841;28;20032;-83
2021/08/08 12:29:00;;;;;;;2.63;1.23;;;34.90;99.90;;;;;;5070110;28;20028;-83
2021/08/08 12:31:34;;;;;;;2.45;1.20;;;37.70;99.90;;;;;;5070833;28;20035;-83
2021/08/08 12:34:00;;;;;;;2.28;1.38;;;38.10;99.90;;;;;;5070500;28;20154;-83
2021/08/08 12:36:36;;;;;;;2.53;1.00;;;38.80;99.90;;;;;;5071071;28;20091;-82
2021/08/08 12:39:01;;;;;;;1.67;1.15;;;39.90;99.90;;;;;;5070598;28;20024;-83
2021/08/08 12:41:39;;;;;;;1.92;1.25;;;38.80;99.90;;;;;;5058423;28;20440;-83
2021/08/08 12:44:05;;;;;;;1.52;1.05;;;39.80;99.90;;;;;;5069027;28;20039;-83
2021/08/08 12:46:37;;;;;;;1.58;1.30;;;39.70;99.90;;;;;;5071032;28;20094;-83
2021/08/08 12:49:06;;;;;;;1.58;1.23;;;40.70;99.90;;;;;;5069080;28;20031;-83
2021/08/08 12:51:32;;;;;;;1.30;1.20;;;40.90;99.90;;;;;;5068970;28;20016;-83
2021/08/08 12:53:58;;;;;;;2.15;1.10;;;39.00;99.90;;;;;;5070765;28;20558;-83